createdAt,value
2022-12-22T00:05:55.176Z,9.10
2022-12-22T00:13:14.175Z,9.10
2022-12-22T00:20:36.022Z,9.10
2022-12-22T00:27:54.734Z,9.10
2022-12-22T00:35:13.489Z,9.10
2022-12-22T00:42:32.341Z,9.20
2022-12-22T00:49:53.111Z,9.10
2022-12-22T00:57:12.861Z,9.20
2022-12-22T01:04:31.876Z,9.20
2022-12-22T01:11:51.831Z,9.20
2022-12-22T01:19:10.799Z,9.30
2022-12-22T01:26:30.952Z,9.30
2022-12-22T01:33:50.027Z,9.30
2022-12-22T01:41:09.471Z,9.40
2022-12-22T01:48:37.581Z,9.40
2022-12-22T01:55:56.441Z,9.40
2022-12-22T02:03:15.264Z,9.50
2022-12-22T02:10:59.109Z,9.50
2022-12-22T02:18:36.259Z,9.50
2022-12-22T02:26:15.721Z,9.40
2022-12-22T02:33:34.939Z,9.50
2022-12-22T02:41:11.121Z,9.50
2022-12-22T02:48:42.605Z,9.50
2022-12-22T02:56:01.622Z,9.50
2022-12-22T03:03:20.612Z,9.50
2022-12-22T03:10:39.414Z,9.50
2022-12-22T03:17:58.281Z,9.50
2022-12-22T03:25:17.069Z,9.50
2022-12-22T03:32:17.409Z,9.60
2022-12-22T03:39:17.821Z,9.60
2022-12-22T03:46:30.713Z,9.60
2022-12-22T03:53:31.132Z,9.60
2022-12-22T04:00:31.686Z,9.70
2022-12-22T04:07:31.995Z,9.70
2022-12-22T04:14:34.722Z,9.70
2022-12-22T04:21:35.351Z,9.70
2022-12-22T04:28:35.594Z,9.80
2022-12-22T04:35:36.061Z,9.80
2022-12-22T04:42:36.321Z,9.80
2022-12-22T04:49:36.688Z,9.80
2022-12-22T04:56:37.195Z,9.80
2022-12-22T05:03:37.535Z,9.90
2022-12-22T05:10:37.841Z,9.90
2022-12-22T05:17:38.164Z,9.90
2022-12-22T05:24:38.719Z,10.00
2022-12-22T05:31:45.079Z,10.00
2022-12-22T05:38:47.556Z,10.00
2022-12-22T05:45:48.053Z,10.00
2022-12-22T05:52:48.277Z,10.00
2022-12-22T05:59:48.885Z,10.00
2022-12-22T06:06:49.239Z,10.00
2022-12-22T06:13:52.372Z,10.00
2022-12-22T06:20:53.327Z,10.00
2022-12-22T06:27:53.744Z,10.00
2022-12-22T06:34:54.211Z,10.00
2022-12-22T06:42:13.107Z,10.00
2022-12-22T06:49:13.569Z,10.00
2022-12-22T06:56:14.095Z,10.00
2022-12-22T07:03:14.730Z,10.10
2022-12-22T07:10:15.084Z,10.00
2022-12-22T07:17:15.634Z,10.00
2022-12-22T07:24:22.927Z,10.00
2022-12-22T07:31:23.516Z,10.00
2022-12-22T07:38:24.170Z,10.00
2022-12-22T07:45:25.171Z,10.00
2022-12-22T07:52:25.605Z,10.00
2022-12-22T07:59:26.037Z,9.90
2022-12-22T08:06:26.750Z,9.90
2022-12-22T08:13:27.015Z,9.80
2022-12-22T08:20:27.331Z,9.90
2022-12-22T08:27:40.443Z,9.80
2022-12-22T08:34:41.182Z,9.80
2022-12-22T08:41:50.619Z,9.90
2022-12-22T08:48:51.121Z,10.00
2022-12-22T08:55:53.500Z,10.00
2022-12-22T09:02:54.106Z,9.90
2022-12-22T09:09:54.743Z,9.90
2022-12-22T09:16:55.070Z,9.90
2022-12-22T09:23:56.492Z,9.90
2022-12-22T09:30:56.867Z,9.80
2022-12-22T09:37:57.734Z,9.80
2022-12-22T09:44:58.065Z,9.80
2022-12-22T09:52:03.665Z,9.80
2022-12-22T09:59:13.106Z,9.80
2022-12-22T10:06:40.315Z,9.90
2022-12-22T10:13:40.571Z,9.90
2022-12-22T10:20:43.227Z,9.90
2022-12-22T10:27:51.557Z,10.00
2022-12-22T10:35:06.761Z,10.00
2022-12-22T10:42:10.802Z,10.00
2022-12-22T10:49:23.982Z,10.00
2022-12-22T10:56:30.967Z,10.00
2022-12-22T11:03:32.179Z,10.00
2022-12-22T11:10:56.876Z,10.00
2022-12-22T11:18:23.906Z,10.00
2022-12-22T11:25:24.073Z,10.10
2022-12-22T11:33:04.144Z,10.10
2022-12-22T11:40:23.159Z,10.10
2022-12-22T11:47:51.444Z,10.30
2022-12-22T11:55:11.728Z,10.40
2022-12-22T12:02:40.492Z,10.30
2022-12-22T12:09:52.458Z,10.30
2022-12-22T12:16:55.282Z,10.20
2022-12-22T12:24:22.664Z,10.20
2022-12-22T12:31:27.425Z,10.10
2022-12-22T12:39:07.636Z,10.00
2022-12-22T12:46:44.391Z,10.10
2022-12-22T12:54:23.691Z,10.30
2022-12-22T13:01:27.129Z,10.40
2022-12-22T13:08:32.068Z,10.40
2022-12-22T13:15:44.904Z,10.40
2022-12-22T13:22:46.235Z,10.50
2022-12-22T13:29:47.817Z,10.40
2022-12-22T13:36:52.881Z,10.50
2022-12-22T13:43:57.968Z,10.50
2022-12-22T13:51:02.231Z,10.50
2022-12-22T13:58:13.839Z,10.50
2022-12-22T14:05:15.562Z,10.50
2022-12-22T14:12:20.393Z,10.50
2022-12-22T14:19:22.263Z,10.60
2022-12-22T14:26:28.060Z,10.60
2022-12-22T14:33:32.757Z,10.60
2022-12-22T14:40:38.688Z,10.60
2022-12-22T14:47:39.882Z,10.60
2022-12-22T14:54:40.521Z,10.60
2022-12-22T15:01:55.799Z,10.50
2022-12-22T15:09:11.999Z,10.40
2022-12-22T15:16:15.719Z,10.40
2022-12-22T15:23:17.004Z,10.40
2022-12-22T15:30:26.525Z,10.30
2022-12-22T15:37:27.549Z,10.40
2022-12-22T15:44:31.000Z,10.30
2022-12-22T15:51:33.877Z,10.40
2022-12-22T15:58:36.517Z,10.30
2022-12-22T16:05:37.890Z,10.30
2022-12-22T16:12:38.336Z,10.20
2022-12-22T16:19:38.707Z,10.10
2022-12-22T16:26:46.708Z,10.10
2022-12-22T16:33:47.144Z,10.00
2022-12-22T16:40:51.525Z,10.00
2022-12-22T16:47:53.118Z,9.80
2022-12-22T16:54:53.787Z,9.80
2022-12-22T17:01:56.595Z,9.70
2022-12-22T17:08:57.141Z,9.70
2022-12-22T17:15:57.730Z,9.60
2022-12-22T17:23:00.375Z,9.60
2022-12-22T17:30:03.820Z,9.50
2022-12-22T17:37:04.254Z,9.50
2022-12-22T17:44:04.720Z,9.50
2022-12-22T17:51:05.247Z,9.50
2022-12-22T17:58:05.783Z,9.50
2022-12-22T18:05:06.290Z,9.50
2022-12-22T18:12:15.680Z,9.50
2022-12-22T18:19:16.106Z,9.50
2022-12-22T18:26:28.727Z,9.50
2022-12-22T18:33:28.821Z,9.50
2022-12-22T18:40:39.111Z,9.50
2022-12-22T18:47:39.276Z,9.50
2022-12-22T18:54:40.141Z,9.50
2022-12-22T19:01:41.031Z,9.60
2022-12-22T19:08:45.835Z,9.70
2022-12-22T19:15:46.348Z,9.60
2022-12-22T19:22:48.028Z,9.70
2022-12-22T19:29:48.565Z,9.80
2022-12-22T19:36:48.825Z,9.80
2022-12-22T19:43:49.419Z,9.80
2022-12-22T19:50:51.135Z,9.90
2022-12-22T19:57:52.272Z,9.90
2022-12-22T20:04:54.102Z,9.80
2022-12-22T20:11:54.179Z,9.80
2022-12-22T20:18:54.663Z,9.80
2022-12-22T20:26:02.615Z,9.70
2022-12-22T20:33:03.026Z,9.80
2022-12-22T20:40:04.237Z,9.80
2022-12-22T20:47:04.262Z,9.90
2022-12-22T20:54:04.860Z,9.90
2022-12-22T21:01:05.127Z,9.90
2022-12-22T21:08:21.053Z,10.00
2022-12-22T21:15:24.366Z,10.10
2022-12-22T21:22:24.423Z,10.10
2022-12-22T21:29:26.937Z,10.10
2022-12-22T21:36:29.933Z,10.10
2022-12-22T21:43:30.304Z,10.00
2022-12-22T21:50:32.974Z,10.00
2022-12-22T21:57:33.551Z,9.80
2022-12-22T22:04:33.557Z,9.80
2022-12-22T22:11:54.430Z,9.80
2022-12-22T22:18:54.610Z,9.70
2022-12-22T22:25:59.021Z,9.70
2022-12-22T22:32:59.591Z,9.60
2022-12-22T22:39:59.947Z,9.60
2022-12-22T22:47:00.735Z,9.60
2022-12-22T22:54:01.428Z,9.60
2022-12-22T23:01:07.318Z,9.60
2022-12-22T23:08:07.739Z,9.60
2022-12-22T23:15:08.591Z,9.60
2022-12-22T23:22:08.957Z,9.60
2022-12-22T23:29:09.502Z,9.60
2022-12-22T23:36:09.966Z,9.70
2022-12-22T23:43:11.909Z,9.60
2022-12-22T23:50:12.554Z,9.70
2022-12-22T23:57:12.811Z,9.60
